Time;durP1;ratioP1;P1;durP2;ratioP2;P2;SDS_P1;SDS_P2;PMS_P1;PMS_P2;Temp;Humidity;BMP_temperature;BMP_pressure;BME280_temperature;BME280_humidity;BME280_pressure;Samples;Min_cycle;Max_cycle;Signal;HPM_P1;HPM_P2
2022/08/25 00:01:07;;;;;;;4.13;0.68;;;;;;;33.61;29.10;98418.84;4837228;29;20049;-84
2022/08/25 00:03:33;;;;;;;2.05;0.88;;;;;;;33.47;29.71;98428.16;4851008;29;20384;-84
2022/08/25 00:05:59;;;;;;;3.15;0.80;;;;;;;33.66;29.25;98424.63;4836484;29;20046;-83
2022/08/25 00:08:25;;;;;;;2.33;1.20;;;;;;;33.90;28.84;98421.66;4837719;29;20054;-83
2022/08/25 00:10:51;;;;;;;1.33;0.70;;;;;;;33.84;29.77;98427.25;4837308;29;20045;-83
2022/08/25 00:13:17;;;;;;;1.45;0.70;;;;;;;33.97;29.11;98416.34;4835824;29;20074;-84
2022/08/25 00:15:45;;;;;;;1.40;0.95;;;;;;;34.14;28.98;98418.69;4835642;29;20042;-84
2022/08/25 00:18:20;;;;;;;2.08;0.55;;;;;;;34.36;28.20;98422.66;4834068;29;20037;-83
2022/08/25 00:20:47;;;;;;;0.85;0.70;;;;;;;34.54;27.75;98421.63;4820870;29;20038;-83
2022/08/25 00:23:13;;;;;;;1.75;1.58;;;;;;;34.48;27.84;98423.59;4836236;29;20474;-84
2022/08/25 00:25:43;;;;;;;1.52;0.70;;;;;;;34.39;27.96;98426.56;4836441;29;20511;-83
2022/08/25 00:28:14;;;;;;;2.35;0.90;;;;;;;34.41;27.65;98430.50;4834540;29;20510;-83
2022/08/25 00:30:42;;;;;;;;;;;;;;;34.50;27.71;98423.88;4835752;29;20053;-84
2022/08/25 00:33:09;;;;;;;0.80;0.52;;;;;;;34.24;28.38;98417.28;4831602;29;20298;-83
2022/08/25 00:35:44;;;;;;;1.38;0.40;;;;;;;34.21;28.19;98421.91;4834579;29;20050;-84
2022/08/25 00:38:12;;;;;;;0.93;0.50;;;;;;;34.24;28.12;98418.06;4832740;29;20408;-84
2022/08/25 00:40:40;;;;;;;2.45;0.57;;;;;;;34.34;28.23;98424.41;4833464;29;20050;-84
2022/08/25 00:43:07;;;;;;;0.85;0.57;;;;;;;34.45;27.96;98419.66;4835832;29;20046;-84
2022/08/25 00:45:34;;;;;;;1.25;0.55;;;;;;;34.47;27.63;98417.09;4839549;29;20106;-84
2022/08/25 00:48:01;;;;;;;1.23;0.80;;;;;;;34.54;27.89;98415.94;4839000;29;20129;-84
2022/08/25 00:50:30;;;;;;;1.30;0.70;;;;;;;34.52;27.81;98416.41;4836789;29;20447;-84
2022/08/25 00:53:00;;;;;;;1.25;0.80;;;;;;;34.40;27.66;98411.03;4835994;29;20467;-84
2022/08/25 00:55:32;;;;;;;1.23;0.50;;;;;;;34.31;27.97;98414.03;4834371;29;20144;-84
2022/08/25 00:58:22;;;;;;;1.67;0.75;;;;;;;34.24;28.00;98414.44;4838103;29;20375;-84
2022/08/25 01:00:51;;;;;;;0.57;0.50;;;;;;;34.37;27.89;98412.03;4840123;29;20137;-83
2022/08/25 01:03:19;;;;;;;1.33;0.70;;;;;;;34.42;27.54;98412.13;4839536;29;20038;-84
2022/08/25 01:05:46;;;;;;;2.92;0.50;;;;;;;34.36;27.76;98414.09;4836578;29;20479;-84
2022/08/25 01:08:13;;;;;;;0.50;0.50;;;;;;;34.15;28.47;98412.47;4833125;29;20120;-84
2022/08/25 01:10:48;;;;;;;1.13;0.50;;;;;;;34.22;27.98;98417.78;4837627;29;20042;-84
2022/08/25 01:13:39;;;;;;;2.50;0.80;;;;;;;34.30;27.68;98418.16;4839283;29;20052;-84
2022/08/25 01:16:08;;;;;;;2.45;0.88;;;;;;;34.24;28.21;98417.28;4834579;29;20136;-84
2022/08/25 01:18:52;;;;;;;1.88;0.57;;;;;;;34.19;28.03;98413.09;4838156;29;20053;-84
2022/08/25 01:21:21;;;;;;;2.05;0.80;;;;;;;34.29;28.03;98408.00;4833245;29;20042;-84
2022/08/25 01:23:48;;;;;;;1.67;0.73;;;;;;;34.31;27.79;98403.38;4831501;29;20797;-84
2022/08/25 01:26:19;;;;;;;0.60;0.40;;;;;;;34.00;28.19;98398.22;4837326;29;20107;-84
2022/08/25 01:31:39;;;;;;;1.43;0.60;;;;;;;33.53;28.96;98401.38;4839025;29;20084;-84
2022/08/25 01:34:11;;;;;;;1.00;0.52;;;;;;;33.74;28.41;98410.78;4841122;29;20054;-83
2022/08/25 01:36:38;;;;;;;4.32;1.23;;;;;;;33.97;27.98;98404.94;4837922;29;20050;-83
2022/08/25 01:39:05;;;;;;;1.30;0.85;;;;;;;34.13;28.09;98400.00;4840812;29;20057;-84
2022/08/25 01:41:33;;;;;;;4.75;1.05;;;;;;;34.30;28.03;98401.84;4839779;29;20046;-84
2022/08/25 01:44:02;;;;;;;3.25;1.15;;;;;;;34.28;27.68;98395.84;4837870;29;20301;-84
2022/08/25 01:46:28;;;;;;;1.75;0.70;;;;;;;34.39;27.85;98390.28;4837034;29;20053;-84
2022/08/25 01:48:54;;;;;;;1.45;0.60;;;;;;;34.40;27.55;98399.63;4839186;29;20042;-83
2022/08/25 01:51:24;;;;;;;1.90;0.60;;;;;;;34.24;27.33;98392.41;4838997;29;20464;-84
2022/08/25 01:53:50;;;;;;;0.73;0.63;;;;;;;34.13;27.27;98395.09;4837123;29;20066;-84
2022/08/25 01:56:17;;;;;;;0.90;0.73;;;;;;;34.04;27.56;98395.22;4840644;29;20091;-84
2022/08/25 01:58:45;;;;;;;5.47;0.73;;;;;;;34.07;28.12;98392.16;4839713;29;20072;-84
2022/08/25 02:01:21;;;;;;;2.95;0.60;;;;;;;33.79;27.82;98395.84;4840805;29;20550;-84
2022/08/25 02:03:50;;;;;;;1.55;1.30;;;;;;;33.87;27.92;98386.38;4837691;29;20137;-84
2022/08/25 02:06:22;;;;;;;0.68;0.68;;;;;;;33.85;27.66;98388.16;4836811;29;20034;-84
2022/08/25 02:08:54;;;;;;;2.72;0.50;;;;;;;34.06;27.71;98384.91;4838570;29;20071;-83
2022/08/25 02:11:22;;;;;;;2.10;0.85;;;;;;;34.26;27.42;98386.22;4839371;29;20462;-83
2022/08/25 02:13:48;;;;;;;2.38;0.60;;;;;;;34.13;27.97;98385.75;4841902;29;20107;-84
2022/08/25 02:16:23;;;;;;;0.90;0.60;;;;;;;34.16;27.82;98393.31;4839684;29;20062;-84
2022/08/25 02:18:50;;;;;;;0.82;0.50;;;;;;;33.96;27.59;98386.25;4838713;29;20125;-83
2022/08/25 02:21:16;;;;;;;0.50;0.50;;;;;;;33.75;27.26;98384.63;4834002;29;20042;-84
2022/08/25 02:23:42;;;;;;;1.67;1.10;;;;;;;33.40;28.27;98386.59;4836257;29;20158;-84
2022/08/25 02:26:09;;;;;;;3.60;0.70;;;;;;;33.53;27.89;98384.28;4839110;29;20044;-84
2022/08/25 02:28:36;;;;;;;0.98;0.75;;;;;;;33.74;27.27;98377.38;4835676;29;20046;-84
2022/08/25 02:31:04;;;;;;;0.85;0.68;;;;;;;33.89;27.13;98380.19;4852239;29;20158;-84
2022/08/25 02:33:30;;;;;;;1.65;0.52;;;;;;;33.99;27.14;98378.78;4836724;29;20089;-83
2022/08/25 02:36:01;;;;;;;1.33;0.47;;;;;;;33.80;27.65;98383.16;4836059;29;20107;-83
2022/08/25 02:38:28;;;;;;;;;;;;;;;33.41;28.59;98383.28;4838044;29;20069;-83
2022/08/25 02:40:58;;;;;;;0.47;0.35;;;;;;;33.66;27.85;98381.09;4837002;29;19955;-83
2022/08/25 02:43:26;;;;;;;1.33;0.82;;;;;;;33.90;27.63;98378.91;4837860;29;20049;-84
2022/08/25 02:45:54;;;;;;;0.73;0.60;;;;;;;34.02;27.40;98374.97;4837739;29;20049;-84
2022/08/25 02:48:20;;;;;;;1.35;0.70;;;;;;;34.09;27.42;98374.56;4838300;29;20050;-83
2022/08/25 02:50:51;;;;;;;2.65;0.80;;;;;;;34.19;27.51;98383.78;4822763;29;20500;-83
2022/08/25 02:53:18;;;;;;;;;;;;;;;34.21;27.15;98379.16;4837199;29;20095;-83
2022/08/25 02:55:45;;;;;;;2.35;0.55;;;;;;;34.30;27.23;98379.03;4848457;29;19928;-84
2022/08/25 02:58:11;;;;;;;1.55;0.60;;;;;;;34.28;27.21;98375.91;4838045;29;20045;-83
2022/08/25 03:00:37;;;;;;;0.75;0.70;;;;;;;34.00;27.31;98381.13;4838195;29;20098;-83
2022/08/25 03:03:04;;;;;;;0.50;0.50;;;;;;;33.98;27.54;98368.69;4839037;29;20107;-83
2022/08/25 03:05:30;;;;;;;0.60;0.57;;;;;;;33.79;27.53;98375.91;4837576;29;20053;-83
2022/08/25 03:07:56;;;;;;;1.25;0.50;;;;;;;33.47;28.13;98369.13;4838528;29;20514;-84
2022/08/25 03:10:22;;;;;;;1.20;0.63;;;;;;;33.09;28.30;98381.41;4840088;29;20102;-84
2022/08/25 03:12:49;;;;;;;2.10;0.60;;;;;;;33.03;28.28;98369.09;4842396;29;20620;-84
2022/08/25 03:15:16;;;;;;;1.95;0.60;;;;;;;33.16;28.68;98375.31;4837447;29;20069;-84
2022/08/25 03:17:48;;;;;;;1.83;1.15;;;;;;;33.30;28.48;98365.97;4837925;29;20529;-83
2022/08/25 03:20:14;;;;;;;2.72;0.82;;;;;;;33.43;27.85;98362.84;4839806;29;20038;-83
2022/08/25 03:22:41;;;;;;;2.97;1.67;;;;;;;33.69;27.59;98366.69;4839236;29;20183;-84
2022/08/25 03:27:54;;;;;;;0.40;0.40;;;;;;;34.21;27.09;98370.59;4838223;29;20053;-84
2022/08/25 03:30:20;;;;;;;1.70;0.80;;;;;;;34.03;27.32;98370.84;4839774;29;20145;-84
2022/08/25 03:32:46;;;;;;;0.88;0.85;;;;;;;33.28;27.97;98368.53;4837102;29;20415;-83
2022/08/25 03:35:13;;;;;;;0.70;0.63;;;;;;;32.78;28.96;98371.69;4840528;29;20041;-84
2022/08/25 03:37:40;;;;;;;0.75;0.40;;;;;;;33.03;28.58;98369.09;4834715;29;20125;-84
2022/08/25 03:40:09;;;;;;;0.52;0.50;;;;;;;33.32;28.07;98362.66;4841820;29;20046;-84
2022/08/25 03:42:39;;;;;;;0.55;0.50;;;;;;;33.65;27.71;98373.84;4837647;29;20566;-84
2022/08/25 03:45:06;;;;;;;0.50;0.50;;;;;;;33.86;27.50;98366.94;4839255;29;20053;-83
2022/08/25 03:47:33;;;;;;;0.60;0.60;;;;;;;33.72;27.08;98365.69;4838579;29;20057;-83
2022/08/25 03:49:59;;;;;;;0.75;0.52;;;;;;;32.99;28.56;98371.34;4837811;29;20042;-84
2022/08/25 03:52:26;;;;;;;1.25;0.57;;;;;;;32.41;29.21;98368.31;4838979;29;20042;-84
2022/08/25 03:54:52;;;;;;;0.60;0.60;;;;;;;32.04;29.97;98371.38;4838986;29;20117;-84
2022/08/25 03:57:19;;;;;;;0.50;0.50;;;;;;;32.32;29.92;98369.16;4837854;29;20513;-84
2022/08/25 03:59:45;;;;;;;0.50;0.50;;;;;;;32.92;28.61;98357.50;4835944;29;20043;-84
2022/08/25 04:02:11;;;;;;;0.43;0.43;;;;;;;33.38;28.10;98357.81;4833003;29;20057;-84
2022/08/25 04:04:38;;;;;;;1.20;0.82;;;;;;;33.65;27.64;98359.63;4836607;29;20528;-84
2022/08/25 04:07:04;;;;;;;0.80;0.63;;;;;;;33.73;27.66;98361.56;4836852;29;20038;-83
2022/08/25 04:09:30;;;;;;;1.02;0.50;;;;;;;33.94;27.10;98357.47;4835272;29;20121;-84
2022/08/25 04:11:56;;;;;;;1.33;0.52;;;;;;;34.06;26.96;98358.47;4840610;29;20514;-84
2022/08/25 04:14:22;;;;;;;0.80;0.50;;;;;;;34.19;26.92;98353.22;4841556;29;20053;-84
2022/08/25 04:16:48;;;;;;;1.60;0.60;;;;;;;34.31;26.83;98354.91;4840373;29;20046;-84
2022/08/25 04:19:15;;;;;;;2.15;0.70;;;;;;;34.39;26.41;98353.22;4838546;29;20128;-86
2022/08/25 04:21:42;;;;;;;0.68;0.63;;;;;;;34.08;27.11;98350.19;4833727;29;20443;-85
2022/08/25 04:24:10;;;;;;;0.75;0.60;;;;;;;33.52;28.21;98359.09;4850390;29;20422;-84
2022/08/25 04:26:41;;;;;;;0.75;0.75;;;;;;;33.04;28.68;98359.31;4833724;29;20034;-86
2022/08/25 04:29:09;;;;;;;1.85;0.60;;;;;;;32.80;29.06;98360.59;4836463;29;20042;-85
2022/08/25 04:31:37;;;;;;;3.30;0.60;;;;;;;33.22;28.86;98361.97;4836565;29;20050;-86
2022/08/25 04:34:05;;;;;;;0.60;0.60;;;;;;;33.75;28.43;98364.69;4840554;29;20048;-86
2022/08/25 04:36:32;;;;;;;1.63;0.80;;;;;;;34.12;27.92;98362.19;4835826;29;20490;-85
2022/08/25 04:38:58;;;;;;;2.97;0.90;;;;;;;34.47;27.85;98362.16;4835261;29;20125;-86
2022/08/25 04:41:24;;;;;;;3.78;1.17;;;;;;;34.74;27.43;98362.50;4841401;29;20069;-85
2022/08/25 04:43:51;;;;;;;3.35;0.90;;;;;;;34.98;27.40;98370.03;4840752;29;20050;-86
2022/08/25 04:46:21;;;;;;;0.73;0.70;;;;;;;35.14;27.74;98358.03;4839350;29;20057;-85
2022/08/25 04:48:49;;;;;;;1.93;0.87;;;;;;;35.20;27.21;98353.94;4838964;29;20070;-84
2022/08/25 04:51:17;;;;;;;2.80;0.80;;;;;;;35.27;27.56;98359.22;4843363;29;20110;-84
2022/08/25 04:53:44;;;;;;;1.15;0.90;;;;;;;35.39;27.38;98360.88;4844941;29;20078;-84
2022/08/25 04:56:13;;;;;;;1.30;0.95;;;;;;;35.46;27.55;98356.78;4845148;29;20038;-84
2022/08/25 04:58:40;;;;;;;2.58;0.95;;;;;;;35.54;27.66;98366.50;4845476;29;20046;-84
2022/08/25 05:01:09;;;;;;;2.72;1.05;;;;;;;35.60;27.24;98360.81;4844850;29;20034;-84
2022/08/25 05:03:36;;;;;;;3.65;1.88;;;;;;;35.69;27.56;98358.56;4845268;29;20125;-84
2022/08/25 05:06:03;;;;;;;1.90;0.90;;;;;;;35.72;27.55;98359.63;4844489;29;20038;-84
2022/08/25 05:08:30;;;;;;;1.88;1.15;;;;;;;35.41;27.79;98351.78;4841513;29;20086;-84
2022/08/25 05:11:04;;;;;;;3.45;1.13;;;;;;;34.86;28.69;98356.94;4845103;29;20045;-84
2022/08/25 05:13:30;;;;;;;2.42;0.60;;;;;;;34.68;29.07;98358.78;4842566;29;20049;-84
2022/08/25 05:15:59;;;;;;;0.60;0.57;;;;;;;34.71;29.45;98354.94;4843118;29;20062;-85
2022/08/25 05:18:28;;;;;;;1.48;0.93;;;;;;;34.37;29.75;98355.78;4840984;29;20555;-85
2022/08/25 05:20:55;;;;;;;2.50;1.02;;;;;;;33.95;30.26;98356.22;4840432;29;20128;-84
2022/08/25 05:23:23;;;;;;;1.90;0.90;;;;;;;33.95;30.39;98352.56;4842309;29;20160;-85
2022/08/25 05:25:51;;;;;;;0.80;0.80;;;;;;;33.93;30.34;98340.88;4844151;29;20396;-84
2022/08/25 05:28:19;;;;;;;0.88;0.70;;;;;;;34.14;30.57;98345.38;4844216;29;20048;-84
2022/08/25 05:30:48;;;;;;;1.05;0.80;;;;;;;34.50;29.92;98355.41;4843028;29;20115;-84
2022/08/25 05:33:15;;;;;;;0.75;0.75;;;;;;;34.80;29.76;98341.81;4841059;29;20045;-85
2022/08/25 05:35:42;;;;;;;2.45;0.82;;;;;;;35.30;29.26;98343.94;4843927;29;20042;-83
2022/08/25 05:38:09;;;;;;;1.05;0.60;;;;;;;35.74;28.73;98354.19;4843245;29;20042;-85
2022/08/25 05:40:35;;;;;;;0.47;0.47;;;;;;;36.13;28.43;98351.63;4841856;29;20049;-85
2022/08/25 05:43:01;;;;;;;0.98;0.73;;;;;;;36.36;28.16;98351.22;4841296;29;20070;-86
2022/08/25 05:45:27;;;;;;;1.23;0.75;;;;;;;36.54;28.16;98355.75;4842753;29;20111;-85
2022/08/25 05:47:53;;;;;;;2.22;1.75;;;;;;;36.61;27.33;98356.06;4838998;29;20050;-85
2022/08/25 05:50:20;;;;;;;8.40;4.70;;;;;;;36.42;28.18;98356.97;4843666;29;20057;-85
2022/08/25 05:52:46;;;;;;;12.25;7.82;;;;;;;36.47;28.31;98359.91;4844069;29;20133;-83
2022/08/25 05:55:12;;;;;;;7.20;4.63;;;;;;;36.66;28.50;98357.38;4841962;29;20094;-85
2022/08/25 05:57:38;;;;;;;6.78;4.65;;;;;;;36.84;28.21;98350.41;4837893;29;20042;-83
2022/08/25 06:00:06;;;;;;;2.67;2.33;;;;;;;37.03;28.57;98358.03;4843353;29;20125;-85
2022/08/25 06:02:43;;;;;;;2.55;1.75;;;;;;;37.03;28.12;98362.97;4844057;29;20057;-87
2022/08/25 06:05:18;;;;;;;3.65;1.70;;;;;;;36.99;28.84;98368.97;4836325;29;20093;-87
2022/08/25 06:07:50;;;;;;;1.80;1.20;;;;;;;37.16;28.29;98355.47;4836007;29;20056;-86
2022/08/25 06:10:24;;;;;;;1.33;1.08;;;;;;;37.20;28.43;98364.56;4841918;29;20095;-85
2022/08/25 06:12:50;;;;;;;1.73;1.20;;;;;;;37.19;28.07;98360.16;4843089;29;20088;-85
2022/08/25 06:15:19;;;;;;;1.67;1.17;;;;;;;37.21;28.77;98366.16;4843681;29;20042;-87
2022/08/25 06:17:47;;;;;;;2.80;1.10;;;;;;;37.27;28.74;98352.59;4843624;29;20499;-85
2022/08/25 06:20:20;;;;;;;1.50;1.17;;;;;;;37.38;29.37;98358.41;4836345;29;20073;-85
2022/08/25 06:22:46;;;;;;;3.53;1.00;;;;;;;37.54;29.04;98361.78;4836639;29;20129;-86
2022/08/25 06:25:16;;;;;;;1.85;1.20;;;;;;;37.66;29.02;98358.41;4842135;29;20050;-83
2022/08/25 06:27:43;;;;;;;2.38;1.33;;;;;;;37.82;28.42;98365.41;4844160;29;20041;-86
2022/08/25 06:30:13;;;;;;;5.60;2.13;;;;;;;37.95;28.52;98357.88;4843488;29;20054;-86
2022/08/25 06:32:41;;;;;;;4.20;2.50;;;;;;;38.07;28.07;98360.75;4838164;29;20117;-84
2022/08/25 06:35:11;;;;;;;4.13;2.25;;;;;;;37.92;28.57;98364.66;4843483;29;20069;-83
2022/08/25 06:37:38;;;;;;;6.40;2.83;;;;;;;37.45;28.91;98368.56;4841828;29;20159;-84
2022/08/25 06:40:06;;;;;;;3.42;2.50;;;;;;;37.74;29.23;98368.03;4843247;29;20065;-86
2022/08/25 06:42:32;;;;;;;5.88;2.88;;;;;;;38.14;28.41;98371.69;4843226;29;20062;-84
2022/08/25 06:45:01;;;;;;;5.15;2.58;;;;;;;37.31;29.85;98361.75;4843732;29;20399;-83
2022/08/25 06:47:27;;;;;;;8.68;3.65;;;;;;;36.38;30.59;98377.25;4842434;29;20053;-83
2022/08/25 06:49:53;;;;;;;7.15;3.95;;;;;;;35.83;32.28;98380.50;4842576;29;20080;-84
2022/08/25 06:52:19;;;;;;;8.05;3.20;;;;;;;36.42;31.55;98377.78;4842840;29;20468;-83
2022/08/25 06:54:46;;;;;;;8.52;4.40;;;;;;;35.90;33.02;98382.09;4842842;29;20050;-87
2022/08/25 06:57:12;;;;;;;8.73;4.30;;;;;;;35.07;34.18;98375.63;4842307;29;20083;-84
2022/08/25 06:59:38;;;;;;;8.30;4.07;;;;;;;34.75;34.14;98369.78;4842954;29;20053;-85
2022/08/25 07:02:05;;;;;;;5.15;3.50;;;;;;;35.28;33.21;98362.84;4841513;29;20063;-83
2022/08/25 07:04:33;;;;;;;8.05;4.60;;;;;;;34.73;35.23;98368.69;4842237;29;20522;-81
2022/08/25 07:07:00;;;;;;;8.63;4.25;;;;;;;34.04;35.58;98361.81;4842548;29;20046;-82
2022/08/25 07:09:26;;;;;;;7.93;3.47;;;;;;;34.95;34.90;98376.75;4842353;29;20049;-82
2022/08/25 07:11:52;;;;;;;13.40;5.50;;;;;;;33.80;36.66;98366.84;4840710;29;20046;-83
2022/08/25 07:14:19;;;;;;;9.38;3.50;;;;;;;34.61;34.84;98376.34;4829970;29;20030;-83
2022/08/25 07:16:45;;;;;;;8.65;4.22;;;;;;;35.07;33.64;98370.69;4839876;29;20492;-84
2022/08/25 07:19:12;;;;;;;7.28;3.45;;;;;;;36.23;31.85;98370.13;4842822;29;20547;-83
2022/08/25 07:21:40;;;;;;;11.15;4.90;;;;;;;34.84;35.99;98370.91;4843012;29;20559;-83
2022/08/25 07:24:12;;;;;;;7.40;4.00;;;;;;;34.08;36.75;98368.09;4840448;29;20046;-83
2022/08/25 07:26:41;;;;;;;10.75;4.68;;;;;;;34.57;36.64;98369.28;4842435;29;20503;-82
2022/08/25 07:29:17;;;;;;;6.60;3.80;;;;;;;34.97;34.63;98365.59;4848570;29;20037;-82
2022/08/25 07:31:43;;;;;;;6.53;3.30;;;;;;;35.29;35.09;98378.69;4861286;29;20387;-83
2022/08/25 07:36:57;;;;;;;3.40;2.40;;;;;;;35.72;33.85;98376.75;4828911;29;20545;-82
2022/08/25 07:39:25;;;;;;;6.00;3.13;;;;;;;35.22;34.77;98377.06;4835447;29;20632;-83
2022/08/25 07:41:51;;;;;;;6.22;3.15;;;;;;;35.16;34.56;98376.22;4836890;29;20045;-83
2022/08/25 07:44:18;;;;;;;9.50;2.88;;;;;;;35.33;33.17;98373.53;4831871;29;20048;-83
2022/08/25 07:46:50;;;;;;;4.20;2.25;;;;;;;36.48;31.86;98375.75;4842159;29;20050;-82
2022/08/25 07:49:23;;;;;;;6.60;3.58;;;;;;;36.09;33.87;98371.88;4840889;29;20045;-84
2022/08/25 07:51:49;;;;;;;6.55;4.07;;;;;;;34.77;36.88;98359.94;4841119;29;20049;-83
2022/08/25 07:54:16;;;;;;;4.65;2.72;;;;;;;35.76;33.22;98360.94;4842472;29;20648;-83
2022/08/25 07:56:42;;;;;;;5.07;3.25;;;;;;;36.52;33.27;98364.88;4842102;29;20085;-83
2022/08/25 07:59:09;;;;;;;5.43;3.30;;;;;;;36.24;34.48;98361.06;4840153;29;20042;-82
2022/08/25 08:01:35;;;;;;;4.60;2.83;;;;;;;35.34;35.14;98360.81;4835589;29;20054;-83
2022/08/25 08:04:02;;;;;;;5.03;2.42;;;;;;;36.34;32.95;98368.09;4839783;29;20107;-83
2022/08/25 08:06:28;;;;;;;8.10;3.10;;;;;;;36.62;31.98;98368.25;4829958;29;20038;-83
2022/08/25 08:08:55;;;;;;;5.47;2.20;;;;;;;37.24;31.32;98361.47;4845506;29;20045;-83
2022/08/25 08:11:32;;;;;;;7.78;3.83;;;;;;;35.92;34.40;98363.16;4835199;29;20410;-83
2022/08/25 08:14:00;;;;;;;5.28;2.53;;;;;;;36.97;32.52;98365.81;4843810;29;20502;-83
2022/08/25 08:16:28;;;;;;;5.32;2.80;;;;;;;36.94;33.26;98366.09;4844908;29;20452;-82
2022/08/25 08:18:55;;;;;;;9.25;3.03;;;;;;;36.44;34.32;98352.31;4844759;29;20058;-83
2022/08/25 08:21:27;;;;;;;10.20;3.00;;;;;;;36.35;32.68;98363.97;4840516;29;20081;-83
2022/08/25 08:23:54;;;;;;;6.93;3.40;;;;;;;34.80;35.30;98362.56;4840723;29;20050;-83
2022/08/25 08:26:21;;;;;;;6.82;3.30;;;;;;;34.69;36.34;98360.38;4839643;29;20049;-83
2022/08/25 08:28:47;;;;;;;10.07;3.13;;;;;;;34.69;35.75;98360.38;4844805;29;20046;-83
2022/08/25 08:31:18;;;;;;;5.95;2.85;;;;;;;36.20;32.41;98363.34;4845760;29;20042;-82
2022/08/25 08:33:45;;;;;;;10.38;4.57;;;;;;;35.21;36.83;98354.72;4845545;29;20503;-83
2022/08/25 08:36:11;;;;;;;11.95;4.13;;;;;;;34.13;38.55;98357.25;4838353;29;20055;-83
2022/08/25 08:38:40;;;;;;;6.57;3.55;;;;;;;34.05;39.15;98356.91;4845032;29;20511;-83
2022/08/25 08:44:25;;;;;;;12.55;4.25;;;;;;;35.21;35.25;98354.72;4842571;29;20085;-83
2022/08/25 08:47:11;;;;;;;6.82;3.75;;;;;;;36.62;33.81;98357.59;4845336;29;20065;-82
2022/08/25 08:49:51;;;;;;;9.10;4.53;;;;;;;36.46;33.22;98349.75;4843458;29;20038;-82
2022/08/25 08:52:23;;;;;;;11.45;4.25;;;;;;;36.80;33.62;98359.25;4843850;29;20134;-82
2022/08/25 08:54:58;;;;;;;13.63;5.03;;;;;;;36.24;33.99;98357.41;4844609;29;20042;-83
2022/08/25 08:57:27;;;;;;;9.07;3.72;;;;;;;35.67;34.09;98358.28;4842327;29;20039;-83
2022/08/25 09:00:04;;;;;;;10.50;4.45;;;;;;;35.98;35.01;98360.38;4843480;29;20046;-81
2022/08/25 09:02:44;;;;;;;17.88;4.45;;;;;;;35.00;37.21;98351.13;4844861;29;20440;-83
2022/08/25 09:05:13;;;;;;;;;;;;;;;34.53;34.56;98348.75;4844755;29;20046;-83
2022/08/25 09:07:51;;;;;;;18.23;3.63;;;;;;;35.03;36.93;98346.50;4844459;29;19923;-83
2022/08/25 09:10:19;;;;;;;7.80;3.25;;;;;;;35.20;38.43;98350.31;4843516;29;20100;-82
2022/08/25 09:13:15;;;;;;;12.27;4.45;;;;;;;33.67;37.58;98349.31;4844960;29;20038;-83
2022/08/25 09:19:16;;;;;;;13.65;5.30;;;;;;;33.77;37.75;98352.81;4845028;29;20089;-82
2022/08/25 09:21:54;;;;;;;10.25;4.80;;;;;;;33.94;38.73;98348.13;4844051;29;20132;-83
2022/08/25 09:24:29;;;;;;;9.05;3.78;;;;;;;34.75;36.92;98340.47;4843907;29;20503;-83
2022/08/25 09:26:58;;;;;;;11.57;4.35;;;;;;;35.36;36.76;98335.38;4844884;29;20046;-81
2022/08/25 09:29:33;;;;;;;11.38;4.55;;;;;;;34.53;38.20;98337.34;4831382;29;20460;-82
2022/08/25 09:32:10;;;;;;;15.65;4.60;;;;;;;33.94;39.75;98336.75;4836028;29;20124;-83
2022/08/25 09:34:37;;;;;;;12.52;5.32;;;;;;;34.65;39.47;98336.19;4825263;29;20043;-83
2022/08/25 09:37:03;;;;;;;15.10;4.55;;;;;;;33.97;40.09;98341.47;4851541;29;20064;-83
2022/08/25 09:39:29;;;;;;;11.77;4.85;;;;;;;34.02;39.68;98338.69;4844598;29;20082;-84
2022/08/25 09:41:59;;;;;;;5.43;3.92;;;;;;;35.78;38.49;98335.50;4836626;29;20062;-84
2022/08/25 09:44:38;;;;;;;10.00;4.70;;;;;;;34.39;37.47;98335.31;4833822;29;20439;-84
2022/08/25 09:47:17;;;;;;;17.30;4.57;;;;;;;33.77;38.07;98327.94;4837089;29;20050;-82
2022/08/25 09:49:48;;;;;;;11.60;3.90;;;;;;;35.03;37.12;98326.53;4844213;29;20054;-83
2022/08/25 09:52:25;;;;;;;;;;;;;;;35.26;34.78;98329.09;4845121;29;20041;-83
2022/08/25 09:54:53;;;;;;;7.93;3.63;;;;;;;34.73;37.85;98325.91;4843758;29;19928;-84
2022/08/25 09:57:31;;;;;;;11.68;4.10;;;;;;;35.49;36.17;98324.34;4843905;29;20054;-84
2022/08/25 10:00:08;;;;;;;10.65;3.13;;;;;;;36.03;36.27;98326.09;4844355;29;20100;-84
2022/08/25 10:02:34;;;;;;;8.95;3.17;;;;;;;35.59;35.88;98328.63;4837464;29;20050;-84
2022/08/25 10:05:20;;;;;;;9.48;3.28;;;;;;;36.86;33.01;98319.97;4827968;29;20048;-84
2022/08/25 10:07:57;;;;;;;17.08;4.35;;;;;;;35.79;35.08;98308.50;4836763;29;20079;-84
2022/08/25 10:10:38;;;;;;;8.18;2.63;;;;;;;37.08;34.86;98313.53;4838165;29;20402;-84
2022/08/25 10:13:16;;;;;;;14.00;4.00;;;;;;;35.58;35.16;98306.25;4843211;29;20050;-82
2022/08/25 10:15:42;;;;;;;11.98;3.17;;;;;;;36.00;36.55;98307.09;4843718;29;20121;-85
2022/08/25 10:18:18;;;;;;;8.70;3.22;;;;;;;35.67;36.06;98318.28;4842805;29;20082;-83
2022/08/25 10:21:03;;;;;;;14.90;2.95;;;;;;;35.46;35.71;98304.56;4843814;29;20049;-84
2022/08/25 10:23:31;;;;;;;16.20;4.40;;;;;;;34.57;39.51;98306.53;4838805;29;20094;-83
2022/08/25 10:26:02;;;;;;;9.07;4.00;;;;;;;35.88;36.87;98307.50;4844338;29;20112;-84
2022/08/25 10:28:47;;;;;;;13.52;4.05;;;;;;;35.92;35.65;98297.41;4843062;29;20045;-85
2022/08/25 10:31:33;;;;;;;15.43;4.43;;;;;;;35.96;34.08;98297.19;4842703;29;20038;-85
2022/08/25 10:34:40;;;;;;;6.88;3.25;;;;;;;37.23;33.17;98288.28;4841128;29;20129;-84
2022/08/25 10:37:25;;;;;;;8.10;3.20;;;;;;;36.33;34.77;98294.28;4843692;29;20046;-85
2022/08/25 10:40:33;;;;;;;6.07;2.53;;;;;;;38.38;31.49;98283.72;4843654;29;20052;-84
2022/08/25 10:43:06;;;;;;;8.43;2.42;;;;;;;38.62;32.03;98283.09;4817291;29;20148;-84
2022/08/25 10:45:42;;;;;;;15.10;3.17;;;;;;;37.09;33.56;98281.50;4825449;29;20049;-84
2022/08/25 10:48:47;;;;;;;7.22;2.53;;;;;;;36.72;33.58;98284.56;4833625;29;20049;-85
2022/08/25 10:51:32;;;;;;;13.70;3.55;;;;;;;35.98;35.07;98275.41;4841839;29;20178;-84
2022/08/25 10:54:15;;;;;;;14.77;3.20;;;;;;;36.59;35.16;98272.81;4842841;29;20078;-84
2022/08/25 10:56:51;;;;;;;12.35;3.95;;;;;;;35.94;37.09;98265.47;4836730;29;20101;-85
2022/08/25 10:59:39;;;;;;;12.65;3.20;;;;;;;36.08;36.26;98269.47;4831917;29;20073;-86
2022/08/25 11:02:41;;;;;;;17.15;4.00;;;;;;;34.86;36.65;98257.84;4841746;29;20058;-84
2022/08/25 11:05:31;;;;;;;14.10;4.72;;;;;;;35.11;35.14;98254.19;4833980;29;20121;-84
2022/08/25 11:08:23;;;;;;;8.60;3.28;;;;;;;37.77;32.39;98254.41;4841057;29;20484;-84
2022/08/25 11:11:02;;;;;;;13.65;3.55;;;;;;;37.23;34.98;98251.84;4815029;29;20054;-83
2022/08/25 11:13:52;;;;;;;8.52;3.72;;;;;;;37.44;32.43;98254.47;4841206;29;20376;-84
2022/08/25 11:16:32;;;;;;;9.90;3.63;;;;;;;37.01;36.86;98256.78;4836562;29;20499;-83
2022/08/25 11:19:14;;;;;;;9.40;3.55;;;;;;;36.49;35.35;98262.09;4843044;29;20042;-83
2022/08/25 11:22:22;;;;;;;14.00;4.00;;;;;;;35.97;36.58;98253.81;5050703;28;20407;-85
2022/08/25 11:25:02;;;;;;;10.52;3.45;;;;;;;37.10;37.31;98245.06;5031607;28;20520;-84
2022/08/25 11:27:44;;;;;;;8.90;3.65;;;;;;;37.91;32.01;98242.66;5029906;28;20026;-85
2022/08/25 11:30:13;;;;;;;7.47;3.45;;;;;;;39.03;29.50;98240.03;5029783;28;20041;-85
2022/08/25 11:32:45;;;;;;;18.27;3.47;;;;;;;38.15;33.15;98241.28;5044036;28;20037;-84
2022/08/25 11:35:15;;;;;;;10.57;2.85;;;;;;;38.63;30.45;98232.97;5032082;28;20034;-85
2022/08/25 11:38:19;;;;;;;11.38;2.97;;;;;;;37.96;30.50;98235.34;5028855;28;20037;-84
2022/08/25 11:41:09;;;;;;;12.25;3.63;;;;;;;36.05;32.20;98237.75;5021251;28;20034;-83
2022/08/25 11:44:05;;;;;;;7.95;3.30;;;;;;;37.00;34.75;98238.81;5013065;28;20044;-84
2022/08/25 11:46:44;;;;;;;7.32;2.95;;;;;;;37.32;34.64;98242.97;5025726;28;20037;-86
2022/08/25 11:49:29;;;;;;;13.45;3.55;;;;;;;37.11;31.92;98230.22;5031319;28;20036;-85
2022/08/25 11:51:55;;;;;;;7.03;3.28;;;;;;;36.91;34.66;98232.53;5027511;28;20505;-85
2022/08/25 11:54:42;;;;;;;16.02;4.28;;;;;;;36.33;33.91;98228.50;5029935;28;20033;-84
2022/08/25 11:57:12;;;;;;;8.85;3.33;;;;;;;35.99;39.08;98231.22;5029342;28;20125;-85
2022/08/25 11:59:56;;;;;;;10.10;3.95;;;;;;;36.82;33.85;98222.13;5028312;28;20041;-84
2022/08/25 12:02:35;;;;;;;12.95;3.47;;;;;;;36.98;32.77;98223.47;5027581;28;20033;-84
2022/08/25 12:05:04;;;;;;;13.82;3.33;;;;;;;36.61;36.97;98224.44;5030187;28;20539;-84
2022/08/25 12:08:37;;;;;;;16.52;3.92;;;;;;;35.57;33.87;98222.63;5027229;28;20116;-83